createdAt,value
2023-01-17T00:02:33.666Z,96183.66
2023-01-17T00:07:53.858Z,96183.09
2023-01-17T00:13:04.946Z,96189.14
2023-01-17T00:18:06.686Z,96194.54
2023-01-17T00:23:41.292Z,96189.02
2023-01-17T00:28:43.983Z,96185.23
2023-01-17T00:33:45.751Z,96188.56
2023-01-17T00:38:48.072Z,96198.81
2023-01-17T00:44:09.067Z,96200.31
2023-01-17T00:49:29.769Z,96183.70
2023-01-17T00:54:50.144Z,96176.94
2023-01-17T01:00:10.599Z,96191.48
2023-01-17T01:05:32.011Z,96187.80
2023-01-17T01:10:52.156Z,96205.93
2023-01-17T01:16:13.150Z,96208.06
2023-01-17T01:21:33.448Z,96208.02
2023-01-17T01:26:53.792Z,96212.71
2023-01-17T01:32:14.251Z,96216.59
2023-01-17T01:37:15.977Z,96216.49
2023-01-17T01:42:17.700Z,96219.31
2023-01-17T01:47:28.365Z,96223.52
2023-01-17T01:52:33.282Z,96228.52
2023-01-17T01:57:40.663Z,96226.25
2023-01-17T02:02:44.671Z,96219.83
2023-01-17T02:08:02.018Z,96213.64
2023-01-17T02:13:04.503Z,96213.72
2023-01-17T02:18:24.002Z,96210.55
2023-01-17T02:24:02.890Z,96216.13
2023-01-17T02:29:27.443Z,96215.39
2023-01-17T02:34:46.140Z,96214.48
2023-01-17T02:40:30.438Z,96209.59
2023-01-17T02:45:32.389Z,96203.18
2023-01-17T02:50:55.095Z,96209.94
2023-01-17T02:56:38.883Z,96204.46
2023-01-17T03:02:10.434Z,96193.29
2023-01-17T03:07:17.518Z,96184.69
2023-01-17T03:12:21.047Z,96182.23
2023-01-17T03:17:26.470Z,96189.20
2023-01-17T03:22:29.398Z,96193.59
2023-01-17T03:27:31.197Z,96210.89
2023-01-17T03:32:32.842Z,96209.23
2023-01-17T03:37:35.269Z,96215.13
2023-01-17T03:42:36.962Z,96224.83
2023-01-17T03:47:38.808Z,96223.59
2023-01-17T03:52:40.646Z,96223.91
2023-01-17T03:57:42.487Z,96226.05
2023-01-17T04:02:44.257Z,96222.80
2023-01-17T04:07:46.182Z,96226.99
2023-01-17T04:12:47.863Z,96231.97
2023-01-17T04:17:49.763Z,96237.98
2023-01-17T04:22:51.507Z,96235.02
2023-01-17T04:27:54.008Z,96249.99
2023-01-17T04:32:55.758Z,96249.70
2023-01-17T04:37:57.535Z,96249.67
2023-01-17T04:42:59.551Z,96249.98
2023-01-17T04:48:05.980Z,96256.50
2023-01-17T04:53:07.781Z,96259.79
2023-01-17T04:58:09.466Z,96259.48
2023-01-17T05:03:11.099Z,96267.52
2023-01-17T05:08:12.823Z,96282.66
2023-01-17T05:13:15.351Z,96294.94
2023-01-17T05:18:18.561Z,96292.70
2023-01-17T05:23:20.298Z,96296.60
2023-01-17T05:28:21.982Z,96286.80
2023-01-17T05:33:23.614Z,96276.50
2023-01-17T05:38:25.355Z,96270.14
2023-01-17T05:43:28.298Z,96263.36
2023-01-17T05:48:30.028Z,96270.27
2023-01-17T05:53:31.752Z,96273.82
2023-01-17T05:58:33.364Z,96276.67
2023-01-17T06:03:35.880Z,96288.38
2023-01-17T06:08:37.796Z,96295.96
2023-01-17T06:13:39.652Z,96304.36
2023-01-17T06:18:42.384Z,96307.70
2023-01-17T06:23:44.080Z,96313.86
2023-01-17T06:28:47.994Z,96314.47
2023-01-17T06:33:49.722Z,96310.58
2023-01-17T06:38:51.770Z,96310.56
2023-01-17T06:43:54.706Z,96315.94
2023-01-17T06:48:56.371Z,96320.55
2023-01-17T06:53:58.253Z,96325.16
2023-01-17T06:58:59.887Z,96325.19
2023-01-17T07:04:03.420Z,96328.85
2023-01-17T07:09:05.366Z,96330.02
2023-01-17T07:14:12.483Z,96327.63
2023-01-17T07:19:14.361Z,96336.22
2023-01-17T07:24:16.135Z,96330.31
2023-01-17T07:29:18.562Z,96321.29
2023-01-17T07:34:20.917Z,96310.14
2023-01-17T07:39:22.661Z,96313.11
2023-01-17T07:44:24.302Z,96317.11
2023-01-17T07:49:26.109Z,96319.77
2023-01-17T07:54:27.821Z,96330.90
2023-01-17T07:59:30.186Z,96339.18
2023-01-17T08:04:35.169Z,96345.29
2023-01-17T08:09:36.999Z,96342.78
2023-01-17T08:14:38.646Z,96348.66
2023-01-17T08:19:40.491Z,96353.62
2023-01-17T08:24:42.222Z,96357.48
2023-01-17T08:29:47.195Z,96354.44
2023-01-17T08:34:50.276Z,96360.00
2023-01-17T08:39:51.949Z,96364.25
2023-01-17T08:44:53.670Z,96362.37
2023-01-17T08:49:55.357Z,96369.06
2023-01-17T08:54:57.496Z,96378.88
2023-01-17T08:59:59.373Z,96389.48
2023-01-17T09:05:01.035Z,96399.44
2023-01-17T09:10:02.947Z,96402.73
2023-01-17T09:15:05.259Z,96402.38
2023-01-17T09:20:08.686Z,96408.02
2023-01-17T09:25:10.561Z,96412.88
2023-01-17T09:30:14.385Z,96411.23
2023-01-17T09:35:18.328Z,96413.44
2023-01-17T09:40:24.643Z,96420.23
2023-01-17T09:45:30.055Z,96421.45
2023-01-17T09:50:38.194Z,96417.44
2023-01-17T09:56:02.647Z,96410.70
2023-01-17T10:01:14.628Z,96410.48
2023-01-17T10:06:35.413Z,96407.03
2023-01-17T10:11:45.890Z,96404.21
2023-01-17T10:17:04.715Z,96406.23
2023-01-17T10:22:38.033Z,96402.08
2023-01-17T10:27:55.278Z,96403.41
2023-01-17T10:32:59.838Z,96410.08
2023-01-17T10:38:06.776Z,96411.19
2023-01-17T10:43:22.160Z,96408.22
2023-01-17T10:48:34.272Z,96415.04
2023-01-17T10:53:56.871Z,96417.40
2023-01-17T10:59:26.249Z,96421.08
2023-01-17T11:04:40.906Z,96413.58
2023-01-17T11:09:44.991Z,96405.44
2023-01-17T11:14:59.812Z,96402.44
2023-01-17T11:20:27.970Z,96401.95
2023-01-17T11:25:33.897Z,96399.01
2023-01-17T11:30:36.204Z,96403.45
2023-01-17T11:35:44.891Z,96400.15
2023-01-17T11:40:48.995Z,96397.29
2023-01-17T11:46:02.749Z,96393.55
2023-01-17T11:51:18.076Z,96387.04
2023-01-17T11:56:31.059Z,96384.77
2023-01-17T12:01:57.990Z,96377.34
2023-01-17T12:07:28.722Z,96372.39
2023-01-17T12:13:08.154Z,96358.66
2023-01-17T12:18:28.733Z,96365.60
2023-01-17T12:23:43.442Z,96372.25
2023-01-17T12:28:55.926Z,96375.52
2023-01-17T12:34:07.980Z,96375.41
2023-01-17T12:39:14.143Z,96379.33
2023-01-17T12:44:20.052Z,96381.81
2023-01-17T12:49:51.488Z,96381.95
2023-01-17T12:55:05.840Z,96372.11
2023-01-17T13:00:19.908Z,96372.02
2023-01-17T13:05:32.276Z,96372.06
2023-01-17T13:10:48.012Z,96370.15
2023-01-17T13:15:54.340Z,96360.64
2023-01-17T13:21:30.138Z,96365.08
2023-01-17T13:26:47.635Z,96366.38
2023-01-17T13:32:06.055Z,96370.33
2023-01-17T13:37:41.928Z,96388.44
2023-01-17T13:43:05.358Z,96390.16
2023-01-17T13:48:14.582Z,96398.34
2023-01-17T13:53:34.545Z,96407.71
2023-01-17T13:59:02.800Z,96419.37
2023-01-17T14:04:07.490Z,96423.55
2023-01-17T14:09:21.447Z,96442.38
2023-01-17T14:14:44.342Z,96464.08
2023-01-17T14:19:49.683Z,96476.80
2023-01-17T14:25:17.297Z,96487.89
2023-01-17T14:30:25.668Z,96491.70
2023-01-17T14:35:36.817Z,96501.20
2023-01-17T14:40:38.722Z,96505.55
2023-01-17T14:45:42.168Z,96509.02
2023-01-17T14:50:46.215Z,96515.55
2023-01-17T14:55:47.885Z,96522.45
2023-01-17T15:00:58.277Z,96529.77
2023-01-17T15:06:11.514Z,96542.28
2023-01-17T15:11:19.841Z,96540.77
2023-01-17T15:16:28.123Z,96541.80
2023-01-17T15:21:35.463Z,96527.66
2023-01-17T15:26:43.091Z,96520.35
2023-01-17T15:31:48.677Z,96513.73
2023-01-17T15:36:51.272Z,96509.36
2023-01-17T15:41:55.069Z,96501.58
2023-01-17T15:46:56.714Z,96506.03
2023-01-17T15:52:10.518Z,96501.50
2023-01-17T15:57:32.692Z,96499.23
2023-01-17T16:02:55.416Z,96499.75
2023-01-17T16:08:01.622Z,96495.87
2023-01-17T16:13:05.670Z,96486.58
2023-01-17T16:18:25.890Z,96483.35
2023-01-17T16:23:28.476Z,96487.19
2023-01-17T16:28:30.131Z,96492.38
2023-01-17T16:33:31.850Z,96487.17
2023-01-17T16:38:33.588Z,96481.90
2023-01-17T16:43:35.329Z,96480.42
2023-01-17T16:48:37.503Z,96471.80
2023-01-17T16:53:39.160Z,96468.64
2023-01-17T16:58:41.557Z,96459.73
2023-01-17T17:03:44.693Z,96455.18
2023-01-17T17:08:47.479Z,96458.41
2023-01-17T17:13:50.718Z,96444.64
2023-01-17T17:19:01.248Z,96436.59
2023-01-17T17:24:03.628Z,96434.11
2023-01-17T17:29:07.247Z,96442.64
2023-01-17T17:34:11.534Z,96442.85
2023-01-17T17:39:17.371Z,96452.23
2023-01-17T17:44:19.105Z,96465.02
2023-01-17T17:49:22.687Z,96474.43
2023-01-17T17:54:24.750Z,96473.11
2023-01-17T17:59:26.996Z,96481.81
2023-01-17T18:04:28.830Z,96476.35
2023-01-17T18:09:30.659Z,96473.11
2023-01-17T18:14:32.673Z,96485.41
2023-01-17T18:19:34.526Z,96496.65
2023-01-17T18:24:36.340Z,96501.52
2023-01-17T18:29:38.048Z,96489.44
2023-01-17T18:34:41.450Z,96497.06
2023-01-17T18:39:43.789Z,96500.77
2023-01-17T18:44:45.694Z,96506.30
2023-01-17T18:49:47.473Z,96496.38
2023-01-17T18:54:49.147Z,96500.84
2023-01-17T18:59:50.975Z,96506.27
2023-01-17T19:04:52.810Z,96505.20
2023-01-17T19:09:54.585Z,96499.90
2023-01-17T19:14:56.474Z,96484.48
2023-01-17T19:19:58.586Z,96477.39
2023-01-17T19:25:00.206Z,96461.74
2023-01-17T19:30:01.907Z,96446.30
2023-01-17T19:35:03.728Z,96450.67
2023-01-17T19:40:08.171Z,96436.52
2023-01-17T19:45:11.868Z,96432.30
2023-01-17T19:50:14.863Z,96432.96
2023-01-17T19:55:17.694Z,96428.33
2023-01-17T20:00:22.928Z,96427.94
2023-01-17T20:05:27.434Z,96422.85
2023-01-17T20:10:29.676Z,96420.89
2023-01-17T20:15:31.647Z,96434.00
2023-01-17T20:20:34.647Z,96437.48
2023-01-17T20:25:36.506Z,96433.48
2023-01-17T20:30:38.140Z,96423.96
2023-01-17T20:35:41.028Z,96418.86
2023-01-17T20:40:42.884Z,96409.72
2023-01-17T20:45:44.671Z,96410.61
2023-01-17T20:50:46.501Z,96417.92
2023-01-17T20:55:55.559Z,96422.02
2023-01-17T21:00:58.596Z,96431.23
2023-01-17T21:06:02.344Z,96420.68
2023-01-17T21:11:05.327Z,96410.38
2023-01-17T21:16:09.216Z,96392.41
2023-01-17T21:21:14.044Z,96386.05
2023-01-17T21:26:17.622Z,96397.19
2023-01-17T21:31:24.114Z,96408.60
2023-01-17T21:36:28.834Z,96422.31
2023-01-17T21:41:33.873Z,96423.05
2023-01-17T21:46:41.024Z,96415.23
2023-01-17T21:51:52.472Z,96416.95
2023-01-17T21:57:12.852Z,96418.97
2023-01-17T22:02:14.738Z,96413.30
2023-01-17T22:07:16.698Z,96410.52
2023-01-17T22:12:24.407Z,96409.21
2023-01-17T22:17:26.267Z,96408.96
2023-01-17T22:22:32.555Z,96400.90
2023-01-17T22:27:34.394Z,96400.43
2023-01-17T22:32:39.397Z,96399.48
2023-01-17T22:37:41.405Z,96385.02
2023-01-17T22:42:43.940Z,96366.58
2023-01-17T22:47:45.710Z,96357.01
2023-01-17T22:52:47.384Z,96341.66
2023-01-17T22:57:49.132Z,96328.02
2023-01-17T23:02:51.002Z,96331.14
2023-01-17T23:07:53.512Z,96326.38
2023-01-17T23:12:55.638Z,96316.25
2023-01-17T23:18:16.453Z,96318.16
2023-01-17T23:23:18.107Z,96303.56
2023-01-17T23:28:20.714Z,96294.92
2023-01-17T23:33:22.458Z,96294.71
2023-01-17T23:38:28.701Z,96288.94
2023-01-17T23:43:31.983Z,96279.98
2023-01-17T23:48:33.745Z,96275.28
2023-01-17T23:53:37.368Z,96269.52
2023-01-17T23:58:39.285Z,96259.84
